createdAt,value
2018-08-03T00:00:40.215Z,102161.64
2018-08-03T00:03:08.320Z,102163.83
2018-08-03T00:05:36.418Z,102161.76
2018-08-03T00:08:04.475Z,102164.54
2018-08-03T00:10:32.541Z,102164.47
2018-08-03T00:13:00.614Z,102156.56
2018-08-03T00:15:28.703Z,102165.57
2018-08-03T00:17:56.764Z,102163.92
2018-08-03T00:20:24.839Z,102159.27
2018-08-03T00:22:52.896Z,102155.39
2018-08-03T00:25:20.965Z,102151.52
2018-08-03T00:27:49.039Z,102159.97
2018-08-03T00:30:17.107Z,102159.11
2018-08-03T00:32:45.176Z,102158.25
2018-08-03T00:35:13.287Z,102155.74
2018-08-03T00:37:41.347Z,102150.65
2018-08-03T00:40:09.444Z,102148.18
2018-08-03T00:42:37.509Z,102157.60
2018-08-03T00:45:05.877Z,102152.52
2018-08-03T00:47:34.031Z,102147.03
2018-08-03T00:50:02.116Z,102141.09
2018-08-03T00:52:30.179Z,102147.11
2018-08-03T00:54:58.343Z,102143.81
2018-08-03T00:57:26.446Z,102146.78
2018-08-03T00:59:54.535Z,102143.92
2018-08-03T01:02:22.619Z,102143.25
2018-08-03T01:04:50.708Z,102149.42
2018-08-03T01:07:18.780Z,102149.97
2018-08-03T01:09:46.892Z,102145.25
2018-08-03T01:12:14.972Z,102148.22
2018-08-03T01:14:43.083Z,102152.67
2018-08-03T01:17:11.180Z,102150.84
2018-08-03T01:19:39.268Z,102153.41
2018-08-03T01:22:07.343Z,102150.98
2018-08-03T01:24:35.448Z,102149.58
2018-08-03T01:27:03.516Z,102152.98
2018-08-03T01:29:31.641Z,102150.55
2018-08-03T01:31:59.724Z,102145.45
2018-08-03T01:34:27.815Z,102155.69
2018-08-03T01:36:55.913Z,102149.83
2018-08-03T01:39:24.016Z,102144.81
2018-08-03T01:41:52.121Z,102145.94
2018-08-03T01:44:20.225Z,102149.48
2018-08-03T01:46:48.312Z,102146.85
2018-08-03T01:49:16.384Z,102147.44
2018-08-03T01:51:44.480Z,102147.00
2018-08-03T01:54:12.571Z,102141.52
2018-08-03T01:56:40.691Z,102144.48
2018-08-03T01:59:08.817Z,102145.39
2018-08-03T02:01:36.868Z,102144.52
2018-08-03T02:04:04.944Z,102147.45
2018-08-03T02:06:33.041Z,102151.81
2018-08-03T02:09:01.115Z,102143.31
2018-08-03T02:11:29.216Z,102151.11
2018-08-03T02:13:57.312Z,102152.42
2018-08-03T02:16:25.431Z,102144.89
2018-08-03T02:18:53.500Z,102152.25
2018-08-03T02:21:21.589Z,102146.77
2018-08-03T02:23:49.664Z,102150.92
2018-08-03T02:26:17.771Z,102148.02
2018-08-03T02:28:45.835Z,102146.55
2018-08-03T02:31:13.904Z,102140.28
2018-08-03T02:33:42.004Z,102144.06
2018-08-03T02:36:10.105Z,102142.41
2018-08-03T02:38:38.164Z,102140.56
2018-08-03T02:41:06.348Z,102136.29
2018-08-03T02:43:34.433Z,102134.44
2018-08-03T02:46:03.596Z,102136.22
2018-08-03T02:48:31.648Z,102136.95
2018-08-03T02:50:59.720Z,102140.34
2018-08-03T02:53:27.793Z,102146.14
2018-08-03T02:55:55.871Z,102140.66
2018-08-03T02:58:23.937Z,102139.98
2018-08-03T03:00:52.012Z,102134.29
2018-08-03T03:03:20.075Z,102135.25
2018-08-03T03:05:48.126Z,102141.25
2018-08-03T03:08:16.196Z,102143.61
2018-08-03T03:10:44.276Z,102145.16
2018-08-03T03:13:12.366Z,102140.50
2018-08-03T03:15:40.462Z,102146.70
2018-08-03T03:18:08.560Z,102143.10
2018-08-03T03:20:36.622Z,102143.89
2018-08-03T03:23:04.696Z,102137.80
2018-08-03T03:25:32.787Z,102146.60
2018-08-03T03:28:01.024Z,102145.50
2018-08-03T03:30:29.090Z,102146.09
2018-08-03T03:32:57.164Z,102143.86
2018-08-03T03:35:25.259Z,102145.27
2018-08-03T03:37:53.356Z,102150.44
2018-08-03T03:40:21.415Z,102142.52
2018-08-03T03:42:49.496Z,102137.86
2018-08-03T03:45:17.548Z,102135.80
2018-08-03T03:47:45.628Z,102143.99
2018-08-03T03:50:13.677Z,102138.95
2018-08-03T03:52:41.735Z,102142.97
2018-08-03T03:55:09.811Z,102146.14
2018-08-03T03:57:37.863Z,102140.88
2018-08-03T04:00:06.941Z,102138.00
2018-08-03T04:02:35.018Z,102139.98
2018-08-03T04:05:03.060Z,102136.72
2018-08-03T04:07:31.123Z,102138.13
2018-08-03T04:09:59.176Z,102135.70
2018-08-03T04:12:27.339Z,102135.70
2018-08-03T04:14:55.351Z,102137.09
2018-08-03T04:17:23.439Z,102131.72
2018-08-03T04:19:51.496Z,102134.98
2018-08-03T04:22:19.552Z,102132.62
2018-08-03T04:24:47.604Z,102133.64
2018-08-03T04:27:15.680Z,102132.11
2018-08-03T04:29:43.748Z,102132.76
2018-08-03T04:32:11.809Z,102131.80
2018-08-03T04:34:39.900Z,102133.89
2018-08-03T04:37:07.972Z,102138.17
2018-08-03T04:39:36.053Z,102135.81
2018-08-03T04:42:04.147Z,102136.46
2018-08-03T04:44:32.210Z,102141.12
2018-08-03T04:47:00.288Z,102139.67
2018-08-03T04:49:28.336Z,102144.20
2018-08-03T04:51:56.423Z,102136.66
2018-08-03T04:54:24.478Z,102145.84
2018-08-03T04:56:52.531Z,102145.76
2018-08-03T04:59:20.588Z,102145.69
2018-08-03T05:01:48.652Z,102150.27
2018-08-03T05:04:16.739Z,102147.75
2018-08-03T05:06:44.817Z,102145.50
2018-08-03T05:09:12.880Z,102151.48
2018-08-03T05:11:40.973Z,102150.05
2018-08-03T05:14:09.019Z,102147.24
2018-08-03T05:16:37.101Z,102149.23
2018-08-03T05:19:05.199Z,102147.44
2018-08-03T05:21:33.253Z,102149.24
2018-08-03T05:24:01.328Z,102145.80
2018-08-03T05:26:29.544Z,102140.11
2018-08-03T05:28:57.612Z,102142.52
2018-08-03T05:31:25.696Z,102151.92
2018-08-03T05:33:53.776Z,102157.38
2018-08-03T05:36:21.928Z,102159.77
2018-08-03T05:38:49.924Z,102157.54
2018-08-03T05:41:18.056Z,102157.46
2018-08-03T05:43:46.141Z,102157.22
2018-08-03T05:46:14.192Z,102161.59
2018-08-03T05:48:42.276Z,102156.69
2018-08-03T05:51:10.364Z,102151.64
2018-08-03T05:53:38.476Z,102152.16
2018-08-03T05:56:06.606Z,102150.71
2018-08-03T05:58:34.696Z,102149.45
2018-08-03T06:01:02.821Z,102148.56
2018-08-03T06:03:30.872Z,102157.56
2018-08-03T06:05:59.335Z,102149.61
2018-08-03T06:08:27.819Z,102151.73
2018-08-03T06:10:55.875Z,102153.06
2018-08-03T06:13:23.937Z,102156.78
2018-08-03T06:15:52.023Z,102154.63
2018-08-03T06:18:20.088Z,102155.54
2018-08-03T06:20:48.168Z,102157.45
2018-08-03T06:23:16.238Z,102158.76
2018-08-03T06:25:44.276Z,102155.20
2018-08-03T06:28:12.400Z,102156.70
2018-08-03T06:30:40.465Z,102159.97
2018-08-03T06:33:08.529Z,102152.92
2018-08-03T06:35:36.602Z,102156.78
2018-08-03T06:38:04.714Z,102156.64
2018-08-03T06:40:32.736Z,102158.66
2018-08-03T06:43:00.823Z,102160.29
2018-08-03T06:45:28.927Z,102157.42
2018-08-03T06:47:57.218Z,102162.89
2018-08-03T06:50:25.400Z,102162.08
2018-08-03T06:52:53.460Z,102155.17
2018-08-03T06:55:21.585Z,102157.76
2018-08-03T06:57:49.628Z,102159.92
2018-08-03T07:00:17.823Z,102159.25
2018-08-03T07:02:47.241Z,102157.49
2018-08-03T07:05:15.243Z,102157.16
2018-08-03T07:07:43.337Z,102159.86
2018-08-03T07:10:11.402Z,102156.42
2018-08-03T07:12:39.588Z,102157.44
2018-08-03T07:15:07.640Z,102148.27
2018-08-03T07:17:35.724Z,102155.56
2018-08-03T07:20:04.329Z,102153.56
2018-08-03T07:22:32.250Z,102149.59
2018-08-03T07:25:00.308Z,102154.63
2018-08-03T07:27:28.343Z,102153.95
2018-08-03T07:29:56.428Z,102152.22
2018-08-03T07:32:24.789Z,102160.91
2018-08-03T07:34:52.835Z,102155.91
2018-08-03T07:37:20.908Z,102156.61
2018-08-03T07:39:48.956Z,102153.86
2018-08-03T07:42:17.242Z,102151.66
2018-08-03T07:44:45.275Z,102155.53
2018-08-03T07:47:13.312Z,102149.80
2018-08-03T07:49:41.360Z,102149.98
2018-08-03T07:52:09.421Z,102149.13
2018-08-03T07:54:37.532Z,102159.94
2018-08-03T07:57:05.623Z,102151.23
2018-08-03T07:59:33.684Z,102154.95
2018-08-03T08:02:01.743Z,102154.70
2018-08-03T08:04:29.830Z,102160.48
2018-08-03T08:06:57.876Z,102147.98
2018-08-03T08:09:25.958Z,102150.80
2018-08-03T08:11:54.021Z,102152.77
2018-08-03T08:14:22.095Z,102148.53
2018-08-03T08:16:50.292Z,102144.83
2018-08-03T08:19:18.341Z,102143.05
2018-08-03T08:21:46.461Z,102140.72
2018-08-03T08:24:14.572Z,102136.59
2018-08-03T08:26:42.655Z,102137.28
2018-08-03T08:29:10.724Z,102125.63
2018-08-03T08:31:38.886Z,102127.56
2018-08-03T08:34:06.918Z,102128.78
2018-08-03T08:36:34.983Z,102123.80
2018-08-03T08:39:03.307Z,102130.37
2018-08-03T08:41:31.376Z,102126.25
2018-08-03T08:43:59.604Z,102125.55
2018-08-03T08:46:27.629Z,102119.08
2018-08-03T08:48:55.692Z,102113.61
2018-08-03T08:51:23.760Z,102110.38
2018-08-03T08:53:51.843Z,102105.81
2018-08-03T08:56:19.908Z,102116.58
2018-08-03T08:58:47.960Z,102107.38
2018-08-03T09:01:16.184Z,102103.27
2018-08-03T09:03:44.192Z,102101.36
2018-08-03T09:06:12.258Z,102096.76
2018-08-03T09:08:40.347Z,102097.09
2018-08-03T09:11:08.925Z,102095.49
2018-08-03T09:13:37.019Z,102101.42
2018-08-03T09:16:05.088Z,102100.91
2018-08-03T09:18:33.182Z,102088.45
2018-08-03T09:21:01.235Z,102083.02
2018-08-03T09:23:29.298Z,102079.01
2018-08-03T09:25:57.364Z,102084.56
2018-08-03T09:28:25.442Z,102085.19
2018-08-03T09:30:53.562Z,102082.75
2018-08-03T09:33:21.619Z,102073.11
2018-08-03T09:35:49.676Z,102072.06
2018-08-03T09:38:17.736Z,102070.86
2018-08-03T09:40:45.836Z,102062.72
2018-08-03T09:43:13.903Z,102065.00
2018-08-03T09:45:41.991Z,102065.59
2018-08-03T09:48:10.038Z,102055.09
2018-08-03T09:50:38.141Z,102067.38
2018-08-03T09:53:06.360Z,102074.17
2018-08-03T09:55:34.471Z,102063.48
2018-08-03T09:58:02.637Z,102060.70
2018-08-03T10:00:36.116Z,102055.34
2018-08-03T10:03:04.174Z,102051.84
2018-08-03T10:05:32.232Z,102050.99
2018-08-03T10:08:00.337Z,102054.48
2018-08-03T10:10:28.447Z,102047.90
2018-08-03T10:12:56.589Z,102051.08
2018-08-03T10:15:24.635Z,102045.75
2018-08-03T10:17:52.928Z,102038.80
2018-08-03T10:20:21.016Z,102033.81
2018-08-03T10:22:49.089Z,102033.25
2018-08-03T10:25:17.203Z,102035.73
2018-08-03T10:27:45.260Z,102027.61
2018-08-03T10:30:13.374Z,102030.50
2018-08-03T10:32:41.444Z,102019.09
2018-08-03T10:35:09.582Z,102018.80
2018-08-03T10:37:37.623Z,102018.45
2018-08-03T10:40:05.741Z,102013.02
2018-08-03T10:42:33.833Z,102009.41
2018-08-03T10:45:01.881Z,102008.16
2018-08-03T10:47:29.943Z,102010.04
2018-08-03T10:49:58.064Z,102003.44
2018-08-03T10:52:26.121Z,102002.35
2018-08-03T10:54:54.210Z,102004.52
2018-08-03T10:57:22.268Z,102000.58
2018-08-03T10:59:50.332Z,102007.42
2018-08-03T11:02:18.386Z,102001.26
2018-08-03T11:04:46.457Z,101994.36
2018-08-03T11:07:14.530Z,102005.52
2018-08-03T11:09:42.598Z,101996.63
2018-08-03T11:12:10.684Z,101991.39
2018-08-03T11:14:38.773Z,101989.06
2018-08-03T11:17:06.865Z,101992.27
2018-08-03T11:19:34.924Z,101991.27
2018-08-03T11:22:03.060Z,101987.27
2018-08-03T11:24:31.095Z,101984.03
2018-08-03T11:26:59.212Z,101981.39
2018-08-03T11:29:27.287Z,101985.16
2018-08-03T11:31:55.357Z,101981.55
2018-08-03T11:34:23.405Z,101978.95
2018-08-03T11:36:51.469Z,101973.81
2018-08-03T11:39:19.544Z,101974.48
2018-08-03T11:41:47.630Z,101979.76
2018-08-03T11:44:15.739Z,101967.96
2018-08-03T11:46:43.968Z,101977.17
2018-08-03T11:49:12.036Z,101982.69
2018-08-03T11:51:40.099Z,101971.45
2018-08-03T11:54:08.179Z,101970.78
2018-08-03T11:56:36.215Z,101958.59
2018-08-03T11:59:04.316Z,101957.58
2018-08-03T12:01:32.396Z,101956.30
2018-08-03T12:04:00.491Z,101961.73
2018-08-03T12:06:28.562Z,101954.70
2018-08-03T12:08:56.619Z,101955.78
2018-08-03T12:11:24.688Z,101945.11
2018-08-03T12:13:52.759Z,101946.03
2018-08-03T12:16:20.855Z,101942.72
2018-08-03T12:18:48.901Z,101945.63
2018-08-03T12:21:16.979Z,101941.98
2018-08-03T12:23:45.074Z,101931.03
2018-08-03T12:26:13.095Z,101932.48
2018-08-03T12:28:41.159Z,101930.58
2018-08-03T12:31:09.269Z,101923.27
2018-08-03T12:33:37.309Z,101929.61
2018-08-03T12:36:05.496Z,101920.33
2018-08-03T12:38:33.548Z,101923.28
2018-08-03T12:41:01.689Z,101929.48
2018-08-03T12:43:29.788Z,101919.92
2018-08-03T12:45:57.870Z,101919.76
2018-08-03T12:48:25.893Z,101916.98
2018-08-03T12:50:53.972Z,101913.59
2018-08-03T12:53:22.064Z,101921.05
2018-08-03T12:55:50.135Z,101914.63
2018-08-03T12:58:18.194Z,101904.47
2018-08-03T13:00:46.249Z,101905.59
2018-08-03T13:03:15.038Z,101905.52
2018-08-03T13:05:43.228Z,101902.25
2018-08-03T13:08:11.389Z,101894.91
2018-08-03T13:10:39.973Z,101892.06
2018-08-03T13:13:08.094Z,101889.71
2018-08-03T13:15:36.174Z,101886.66
2018-08-03T13:18:04.261Z,101885.61
2018-08-03T13:20:32.340Z,101885.61
2018-08-03T13:23:02.091Z,101881.76
2018-08-03T13:25:30.147Z,101876.91
2018-08-03T13:27:58.212Z,101877.83
2018-08-03T13:30:26.256Z,101877.19
2018-08-03T13:32:54.320Z,101868.85
2018-08-03T13:35:22.455Z,101881.00
2018-08-03T13:37:50.809Z,101874.48
2018-08-03T13:40:18.880Z,101872.28
2018-08-03T13:42:47.156Z,101872.11
2018-08-03T13:45:15.324Z,101865.01
2018-08-03T13:47:43.400Z,101863.19
2018-08-03T13:50:11.981Z,101858.34
2018-08-03T13:52:40.061Z,101848.88
2018-08-03T13:55:08.171Z,101851.80
2018-08-03T13:57:36.309Z,101856.83
2018-08-03T14:00:06.169Z,101862.34
2018-08-03T14:02:34.236Z,101841.78
2018-08-03T14:05:02.296Z,101852.64
2018-08-03T14:07:30.376Z,101848.73
2018-08-03T14:09:58.483Z,101833.53
2018-08-03T14:12:26.533Z,101842.94
2018-08-03T14:14:54.595Z,101842.21
2018-08-03T14:17:22.655Z,101843.77
2018-08-03T14:19:50.703Z,101841.88
2018-08-03T14:22:18.777Z,101837.44
2018-08-03T14:24:46.865Z,101834.09
2018-08-03T14:27:14.952Z,101834.91
2018-08-03T14:29:43.005Z,101823.44
2018-08-03T14:32:11.063Z,101827.36
2018-08-03T14:34:39.123Z,101829.48
2018-08-03T14:37:07.201Z,101829.03
2018-08-03T14:39:35.252Z,101833.45
2018-08-03T14:44:37.740Z,101826.16
2018-08-03T14:47:05.895Z,101823.31
2018-08-03T14:49:33.947Z,101823.47
2018-08-03T14:52:02.001Z,101824.48
2018-08-03T14:54:30.083Z,101818.69
2018-08-03T14:56:58.117Z,101815.61
2018-08-03T14:59:26.220Z,101809.28
2018-08-03T15:01:54.269Z,101808.16
2018-08-03T15:04:22.392Z,101816.33
2018-08-03T15:06:50.431Z,101813.11
2018-08-03T15:09:18.494Z,101812.89
2018-08-03T15:11:46.545Z,101810.76
2018-08-03T15:14:14.593Z,101801.03
2018-08-03T15:16:42.646Z,101802.99
2018-08-03T15:19:10.733Z,101800.51
2018-08-03T15:21:38.819Z,101800.42
2018-08-03T15:24:06.916Z,101799.34
2018-08-03T15:26:34.998Z,101798.27
2018-08-03T15:29:03.161Z,101802.45
2018-08-03T15:31:31.170Z,101793.02
2018-08-03T15:33:59.241Z,101798.88
2018-08-03T15:36:27.288Z,101797.62
2018-08-03T15:38:55.360Z,101800.01
2018-08-03T15:41:23.428Z,101790.33
2018-08-03T15:43:51.799Z,101793.91
2018-08-03T15:46:21.054Z,101789.00
2018-08-03T15:48:49.147Z,101788.34
2018-08-03T15:51:17.204Z,101791.89
2018-08-03T15:53:45.271Z,101783.77
2018-08-03T15:56:13.323Z,101783.41
2018-08-03T15:58:41.482Z,101782.30
2018-08-03T16:01:09.520Z,101771.72
2018-08-03T16:03:37.615Z,101772.77
2018-08-03T16:06:05.737Z,101776.84
2018-08-03T16:08:33.792Z,101778.82
2018-08-03T16:11:01.961Z,101772.30
2018-08-03T16:13:30.117Z,101776.89
2018-08-03T16:15:59.267Z,101773.91
2018-08-03T16:18:27.338Z,101766.73
2018-08-03T16:20:55.380Z,101770.77
2018-08-03T16:23:23.427Z,101768.22
2018-08-03T16:25:51.581Z,101770.34
2018-08-03T16:28:19.644Z,101764.45
2018-08-03T16:30:47.708Z,101766.53
2018-08-03T16:33:15.760Z,101769.42
2018-08-03T16:35:43.836Z,101770.55
2018-08-03T16:38:11.950Z,101770.57
2018-08-03T16:40:40.097Z,101771.38
2018-08-03T16:43:08.168Z,101768.97
2018-08-03T16:45:36.284Z,101771.37
2018-08-03T16:48:04.413Z,101770.72
2018-08-03T16:50:32.496Z,101770.70
2018-08-03T16:53:00.596Z,101770.86
2018-08-03T16:55:28.704Z,101769.37
2018-08-03T16:57:56.790Z,101767.61
2018-08-03T17:00:24.996Z,101763.92
2018-08-03T17:02:53.077Z,101774.30
2018-08-03T17:05:21.168Z,101773.81
2018-08-03T17:07:49.219Z,101770.76
2018-08-03T17:10:17.285Z,101775.51
2018-08-03T17:12:45.390Z,101777.41
2018-08-03T17:15:13.460Z,101773.88
2018-08-03T17:17:41.527Z,101773.41
2018-08-03T17:20:09.664Z,101773.08
2018-08-03T17:22:37.695Z,101769.65
2018-08-03T17:25:05.772Z,101769.59
2018-08-03T17:27:33.824Z,101770.22
2018-08-03T17:30:01.889Z,101770.67
2018-08-03T17:32:29.943Z,101764.39
2018-08-03T17:34:57.992Z,101769.80
2018-08-03T17:37:26.096Z,101765.46
2018-08-03T17:39:54.276Z,101768.91
2018-08-03T17:42:22.347Z,101769.09
2018-08-03T17:44:50.396Z,101768.11
2018-08-03T17:47:18.467Z,101766.19
2018-08-03T17:49:46.556Z,101769.68
2018-08-03T17:52:14.616Z,101767.62
2018-08-03T17:54:42.697Z,101766.00
2018-08-03T17:57:10.795Z,101774.12
2018-08-03T17:59:38.832Z,101772.69
2018-08-03T18:02:07.090Z,101774.41
2018-08-03T18:04:35.263Z,101770.08
2018-08-03T18:07:03.356Z,101772.13
2018-08-03T18:09:31.603Z,101770.14
2018-08-03T18:11:59.699Z,101772.95
2018-08-03T18:14:27.762Z,101773.39
2018-08-03T18:16:55.829Z,101772.56
2018-08-03T18:19:23.891Z,101769.78
2018-08-03T18:21:52.033Z,101770.20
2018-08-03T18:24:20.058Z,101769.02
2018-08-03T18:26:48.155Z,101774.48
2018-08-03T18:29:16.281Z,101774.71
2018-08-03T18:31:44.353Z,101772.08
2018-08-03T18:34:12.412Z,101769.28
2018-08-03T18:36:40.557Z,101766.49
2018-08-03T18:39:10.000Z,101776.14
2018-08-03T18:41:38.281Z,101772.69
2018-08-03T18:44:06.432Z,101767.03
2018-08-03T18:46:34.544Z,101769.92
2018-08-03T18:49:02.627Z,101778.21
2018-08-03T18:51:30.709Z,101775.25
2018-08-03T18:53:58.833Z,101780.02
2018-08-03T18:56:26.932Z,101779.56
2018-08-03T18:58:55.013Z,101784.13
2018-08-03T19:01:23.099Z,101781.42
2018-08-03T19:03:51.175Z,101782.54
2018-08-03T19:06:19.289Z,101789.36
2018-08-03T19:08:47.395Z,101789.84
2018-08-03T19:11:15.515Z,101789.52
2018-08-03T19:13:43.581Z,101795.83
2018-08-03T19:16:11.652Z,101797.08
2018-08-03T19:18:40.049Z,101795.77
2018-08-03T19:21:08.134Z,101803.63
2018-08-03T19:23:36.212Z,101805.25
2018-08-03T19:26:04.312Z,101807.69
2018-08-03T19:28:32.411Z,101810.38
2018-08-03T19:31:00.492Z,101816.33
2018-08-03T19:33:28.649Z,101812.59
2018-08-03T19:35:56.708Z,101815.23
2018-08-03T19:38:24.820Z,101806.85
2018-08-03T19:40:52.920Z,101818.82
2018-08-03T19:43:21.034Z,101816.56
2018-08-03T19:45:49.120Z,101820.81
2018-08-03T19:48:17.191Z,101821.39
2018-08-03T19:50:45.635Z,101827.42
2018-08-03T19:53:13.786Z,101825.91
2018-08-03T19:55:42.692Z,101826.86
2018-08-03T19:58:10.791Z,101824.09
2018-08-03T20:00:38.884Z,101825.39
2018-08-03T20:03:07.025Z,101832.31
2018-08-03T20:05:35.102Z,101821.58
2018-08-03T20:08:03.220Z,101822.27
2018-08-03T20:10:31.328Z,101828.48
2018-08-03T20:13:00.112Z,101820.27
2018-08-03T20:15:28.174Z,101820.58
2018-08-03T20:17:56.275Z,101829.61
2018-08-03T20:20:24.380Z,101827.28
2018-08-03T20:22:52.505Z,101826.34
2018-08-03T20:25:20.580Z,101833.03
2018-08-03T20:27:48.652Z,101825.66
2018-08-03T20:30:16.743Z,101822.38
2018-08-03T20:32:44.873Z,101821.67
2018-08-03T20:35:12.940Z,101822.61
2018-08-03T20:37:41.031Z,101815.43
2018-08-03T20:40:09.616Z,101819.36
2018-08-03T20:42:37.718Z,101820.84
2018-08-03T20:45:06.083Z,101822.39
2018-08-03T20:47:34.195Z,101818.83
2018-08-03T20:50:02.312Z,101821.56
2018-08-03T20:52:30.597Z,101820.88
2018-08-03T20:54:58.710Z,101829.69
2018-08-03T20:57:26.817Z,101823.69
2018-08-03T20:59:54.869Z,101827.42
2018-08-03T21:02:23.180Z,101823.45
2018-08-03T21:04:51.248Z,101819.64
2018-08-03T21:07:19.332Z,101827.02
2018-08-03T21:09:47.487Z,101827.52
2018-08-03T21:12:15.615Z,101829.19
2018-08-03T21:14:43.681Z,101823.40
2018-08-03T21:17:11.758Z,101827.71
2018-08-03T21:19:39.832Z,101830.39
2018-08-03T21:22:07.936Z,101824.40
2018-08-03T21:24:36.049Z,101818.61
2018-08-03T21:27:04.092Z,101819.13
2018-08-03T21:29:32.158Z,101818.59
2018-08-03T21:32:00.241Z,101819.03
2018-08-03T21:34:28.327Z,101814.59
2018-08-03T21:36:56.407Z,101817.09
2018-08-03T21:39:24.477Z,101814.05
2018-08-03T21:41:52.572Z,101817.71
2018-08-03T21:44:20.667Z,101817.93
2018-08-03T21:46:48.795Z,101818.97
2018-08-03T21:49:16.898Z,101818.76
2018-08-03T21:51:44.991Z,101810.89
2018-08-03T21:54:13.060Z,101804.27
2018-08-03T21:56:41.139Z,101804.70
2018-08-03T21:59:09.228Z,101798.30
2018-08-03T22:01:37.336Z,101808.09
2018-08-03T22:04:05.445Z,101807.58
2018-08-03T22:06:33.515Z,101807.02
2018-08-03T22:09:01.592Z,101804.25
2018-08-03T22:11:29.680Z,101812.55
2018-08-03T22:13:57.737Z,101803.69
2018-08-03T22:16:25.840Z,101795.03
2018-08-03T22:18:53.984Z,101801.73
2018-08-03T22:21:22.043Z,101813.52
2018-08-03T22:23:50.129Z,101812.77
2018-08-03T22:26:18.192Z,101807.52
2018-08-03T22:28:46.244Z,101814.42
2018-08-03T22:31:14.629Z,101812.83
2018-08-03T22:33:42.776Z,101815.86
2018-08-03T22:36:10.819Z,101815.68
2018-08-03T22:38:38.968Z,101814.08
2018-08-03T22:41:07.040Z,101809.22
2018-08-03T22:43:35.090Z,101808.44
2018-08-03T22:46:03.168Z,101812.48
2018-08-03T22:48:31.279Z,101811.66
2018-08-03T22:50:59.317Z,101808.25
2018-08-03T22:53:27.404Z,101807.86
2018-08-03T22:55:55.463Z,101812.70
2018-08-03T22:58:23.548Z,101810.29
2018-08-03T23:00:51.611Z,101808.47
2018-08-03T23:03:19.659Z,101809.12
2018-08-03T23:05:47.767Z,101819.67
2018-08-03T23:08:16.000Z,101816.25
2018-08-03T23:10:43.991Z,101814.84
2018-08-03T23:13:12.060Z,101806.58
2018-08-03T23:15:40.175Z,101807.81
2018-08-03T23:18:08.263Z,101808.44
2018-08-03T23:20:36.328Z,101811.70
2018-08-03T23:23:04.381Z,101806.41
2018-08-03T23:25:32.465Z,101812.70
2018-08-03T23:28:00.531Z,101809.06
2018-08-03T23:30:28.616Z,101814.52
2018-08-03T23:32:56.693Z,101808.47
2018-08-03T23:35:24.785Z,101808.08
2018-08-03T23:37:52.840Z,101803.63
2018-08-03T23:40:20.936Z,101801.20
2018-08-03T23:42:49.047Z,101798.19
2018-08-03T23:45:17.152Z,101796.57
2018-08-03T23:47:45.225Z,101802.42
2018-08-03T23:50:16.164Z,101802.63
2018-08-03T23:52:44.720Z,101796.33
2018-08-03T23:55:12.776Z,101793.91
2018-08-03T23:57:40.849Z,101797.13
